Flight Track Log - Related Links

Times and Time Zones

All times are in EDT time to prevent confusion due to time zone crossing. See the RPA3247 flight status page for this flight to view local times or setup timezone preferences in your user account.

Time Position Orientation Groundspeed Altitude Reporting Facility
EDT Latitude Longitude Course Direction KTS MPH feet Rate Location/Type
Wed 21:02:46 42.7297 -73.8081 171° South 141 162 1,600  Level Boston Center
Wed 21:03:10 42.7131 -73.8078 179° South 139 160 2,300 2,047 Climbing Boston Center
Wed 21:04:11 42.6628 -73.8347 202° Southwest 247 284 4,500 2,376 Climbing Boston Center
Wed 21:04:51 42.6517 -73.8883 254° West 263 303 6,300 3,300 Climbing Boston Center
Wed 21:05:00 42.3927 -74.1176 170° South  Level Estimated
Wed 21:05:51 42.6503 -73.9983 269° West 276 318 10,000  Level Boston Center
Wed 21:06:00 42.3382 -73.9940 121° Southeast  Level FlightAware Approximate
Wed 21:06:51 42.6256 -74.1192 254° West 300 345 13,100  Level Boston Center
Wed 21:07:00 42.2505 -74.0755 169° South  Level Estimated
Wed 21:07:51 42.5506 -74.1114 176° South 252 290 16,100  Level Boston Center
Wed 21:08:00 42.1628 -74.1567 171° South  Level Estimated
Wed 21:08:52 42.4639 -74.0528 153° Southeast 280 322 18,800  Level Boston Center
Wed 21:09:51 42.3814 -74.0000 155° Southeast 315 362 21,500 2,017 Climbing Boston Center
Wed 21:10:51 42.2883 -73.9417 155° Southeast 346 398 22,800 1,600 Climbing Boston Center
Wed 21:11:51 42.1911 -73.8747 153° Southeast 374 430 24,700 1,900 Climbing Boston Center
Wed 21:12:51 42.0900 -73.8108 155° Southeast 390 449 26,600 1,650 Climbing Boston Center
Wed 21:13:51 41.9906 -73.7444 154° Southeast 395 455 28,000 700 Climbing Boston Center
Wed 21:14:51 41.8828 -73.6978 162° South 395 455 28,000  Level Boston Center
Wed 21:16:03 41.7661 -73.7064 183° South 397 457 28,000  Level Boston Center
Wed 21:18:18 41.5144 -73.8714 206° Southwest 428 493 28,000  Level New York Center
Wed 21:19:19 41.4083 -73.9494 209° Southwest 434 499 28,000  Level New York Center
Wed 21:20:19 41.3042 -74.0272 209° Southwest 439 505 28,000  Level New York Center
Wed 21:21:17 41.2000 -74.1050 209° Southwest 439 505 28,000  Level New York Center
Wed 21:22:18 41.0956 -74.1822 209° Southwest 439 505 28,000  Level New York Center
Wed 21:23:19 40.9767 -74.2644 208° Southwest 439 505 28,000  Level New York Center
Wed 21:24:19 40.8722 -74.3414 209° Southwest 439 505 28,000  Level New York Center
Wed 21:25:17 40.7739 -74.4264 213° Southwest 439 505 28,000  Level New York Center
Wed 21:26:17 40.6969 -74.5511 231° Southwest 432 497 28,000  Level New York Center
Wed 21:27:19 40.6242 -74.6728 232° Southwest 432 497 28,000 -350 Level New York Center
Wed 21:28:17 40.5450 -74.7967 230° Southwest 438 504 27,300 -864 Descending New York Center
Wed 21:29:17 40.4639 -74.9119 227° Southwest 443 510 26,300 -942 Descending New York Center
Wed 21:30:18 40.3872 -75.0217 227° Southwest 432 497 25,400 -942 Descending New York Center
Wed 21:31:18 40.3181 -75.1453 234° Southwest 427 491 24,400 -966 Descending New York Center
Wed 21:32:16 40.2608 -75.2778 241° Southwest 427 491 23,500 -958 Descending New York Center
Wed 21:33:17 40.1778 -75.3811 224° Southwest 422 486 22,500 -732 Descending New York Center
Wed 21:34:19 40.0925 -75.4758 220° Southwest 417 480 22,000 -252 Descending New York Center
Wed 21:35:16 40.0136 -75.5764 224° Southwest 406 467 22,000  Level New York Center
Wed 21:36:17 39.9422 -75.6906 231° Southwest 406 467 22,000  Level New York Center
Wed 21:37:18 39.8731 -75.7939 229° Southwest 414 476 22,000  Level New York Center
Wed 21:38:18 39.8017 -75.9022 229° Southwest 414 476 22,000  Level New York Center
Wed 21:39:17 39.7261 -76.0128 228° Southwest 414 476 22,000 -100 Level New York Center
Wed 21:40:18 39.6542 -76.1233 230° Southwest 414 476 21,800 -1,805 Descending New York Center
Wed 21:41:20 39.5667 -76.2500 228° Southwest 392 451 18,300 -3,492 Descending Potomac TRACON
Wed 21:42:20 39.5000 -76.3500 229° Southwest 369 425 14,700 -3,350 Descending Potomac TRACON
Wed 21:43:20 39.4333 -76.4333 224° Southwest 335 386 11,600 -2,350 Descending Potomac TRACON
Wed 21:44:20 39.3500 -76.5000 212° Southwest 321 369 10,000 -800 Descending Potomac TRACON
Wed 21:45:20 39.2833 -76.5667 218° Southwest 319 367 10,000  Level Potomac TRACON
Wed 21:46:20 39.2167 -76.6167 210° Southwest 281 323 10,000  Level Potomac TRACON
Wed 21:47:20 39.1500 -76.6833 218° Southwest 278 320 10,000 48 Level Potomac TRACON
Wed 21:48:26 39.0833 -76.7500 218° Southwest 280 322 10,100 -667 Climbing Potomac TRACON
Wed 21:49:26 39.0333 -76.8167 226° Southwest 269 310 8,600 -1,686 Descending Potomac TRACON
Wed 21:50:27 39.0333 -76.9167 270° West 277 319 6,700 -1,388 Descending Potomac TRACON
Wed 21:51:27 39.0333 -77.0167 270° West 247 284 5,800 -800 Descending Potomac TRACON
Wed 21:52:27 39.0500 -77.0833 288° West 205 236 5,100 -474 Descending Potomac TRACON
Wed 21:53:21 39.0667 -77.1333 293° West 212 244 4,900 -550 Descending Potomac TRACON
Wed 21:54:27 39.0667 -77.2167 270° West 190 219 4,000 -857 Descending Potomac TRACON
Wed 21:55:27 39.0167 -77.2167 180° South 177 204 3,100 -450 Descending Potomac TRACON
Wed 21:56:27 38.9833 -77.1667 131° Southeast 177 204 3,100  Level Potomac TRACON

Login

Don't have an account? Register now (free) for customized features, flight alerts, and more!